sensor_id;sensor_type;location;lat;lon;timestamp;temperature;humidity
30594;DHT22;33199;47.590;8.300;2023-05-31T00:00:14;20.90;57.70
30594;DHT22;33199;47.590;8.300;2023-05-31T00:02:40;20.90;57.70
30594;DHT22;33199;47.590;8.300;2023-05-31T00:05:06;20.90;57.60
30594;DHT22;33199;47.590;8.300;2023-05-31T00:07:31;20.90;57.60
30594;DHT22;33199;47.590;8.300;2023-05-31T00:09:57;20.90;57.60
30594;DHT22;33199;47.590;8.300;2023-05-31T00:12:22;20.90;57.70
30594;DHT22;33199;47.590;8.300;2023-05-31T00:14:48;20.90;57.70
30594;DHT22;33199;47.590;8.300;2023-05-31T00:17:13;20.90;57.70
30594;DHT22;33199;47.590;8.300;2023-05-31T00:19:39;20.90;57.70
30594;DHT22;33199;47.590;8.300;2023-05-31T00:22:04;20.80;57.70
30594;DHT22;33199;47.590;8.300;2023-05-31T00:24:31;20.80;58.20
30594;DHT22;33199;47.590;8.300;2023-05-31T00:26:56;20.80;57.70
30594;DHT22;33199;47.590;8.300;2023-05-31T00:29:22;20.80;57.80
30594;DHT22;33199;47.590;8.300;2023-05-31T00:31:48;20.80;57.80
30594;DHT22;33199;47.590;8.300;2023-05-31T00:34:13;20.80;57.80
30594;DHT22;33199;47.590;8.300;2023-05-31T00:36:39;20.80;57.70
30594;DHT22;33199;47.590;8.300;2023-05-31T00:39:04;20.80;57.80
30594;DHT22;33199;47.590;8.300;2023-05-31T00:41:30;20.80;57.80
30594;DHT22;33199;47.590;8.300;2023-05-31T00:43:56;20.80;57.70
30594;DHT22;33199;47.590;8.300;2023-05-31T00:46:28;20.80;57.80
30594;DHT22;33199;47.590;8.300;2023-05-31T00:48:54;20.80;57.80
30594;DHT22;33199;47.590;8.300;2023-05-31T00:51:19;20.80;57.80
30594;DHT22;33199;47.590;8.300;2023-05-31T00:53:45;20.80;57.80
30594;DHT22;33199;47.590;8.300;2023-05-31T00:56:11;20.80;57.80
30594;DHT22;33199;47.590;8.300;2023-05-31T00:58:37;20.80;57.90
30594;DHT22;33199;47.590;8.300;2023-05-31T01:01:04;20.80;57.90
30594;DHT22;33199;47.590;8.300;2023-05-31T01:03:30;20.80;57.90
30594;DHT22;33199;47.590;8.300;2023-05-31T01:05:56;20.80;58.00
30594;DHT22;33199;47.590;8.300;2023-05-31T01:08:21;20.70;57.80
30594;DHT22;33199;47.590;8.300;2023-05-31T01:10:47;20.70;57.80
30594;DHT22;33199;47.590;8.300;2023-05-31T01:16:06;20.70;57.80
30594;DHT22;33199;47.590;8.300;2023-05-31T01:18:45;20.70;57.80
30594;DHT22;33199;47.590;8.300;2023-05-31T01:21:15;20.70;57.90
30594;DHT22;33199;47.590;8.300;2023-05-31T01:23:59;20.70;58.10
30594;DHT22;33199;47.590;8.300;2023-05-31T01:26:31;20.70;58.20
30594;DHT22;33199;47.590;8.300;2023-05-31T01:29:01;20.70;58.10
30594;DHT22;33199;47.590;8.300;2023-05-31T01:31:29;20.70;58.00
30594;DHT22;33199;47.590;8.300;2023-05-31T01:33:55;20.70;58.10
30594;DHT22;33199;47.590;8.300;2023-05-31T01:36:21;20.70;58.10
30594;DHT22;33199;47.590;8.300;2023-05-31T01:38:46;20.70;58.00
30594;DHT22;33199;47.590;8.300;2023-05-31T01:41:12;20.70;58.10
30594;DHT22;33199;47.590;8.300;2023-05-31T01:43:40;20.60;58.00
30594;DHT22;33199;47.590;8.300;2023-05-31T01:46:05;20.70;58.10
30594;DHT22;33199;47.590;8.300;2023-05-31T01:48:32;20.60;58.10
30594;DHT22;33199;47.590;8.300;2023-05-31T01:50:58;20.70;58.10
30594;DHT22;33199;47.590;8.300;2023-05-31T01:53:24;20.60;58.00
30594;DHT22;33199;47.590;8.300;2023-05-31T01:55:50;20.60;58.20
30594;DHT22;33199;47.590;8.300;2023-05-31T01:58:16;20.60;58.10
30594;DHT22;33199;47.590;8.300;2023-05-31T02:00:43;20.60;58.10
30594;DHT22;33199;47.590;8.300;2023-05-31T02:03:08;20.60;58.20
30594;DHT22;33199;47.590;8.300;2023-05-31T02:05:34;20.60;58.20
30594;DHT22;33199;47.590;8.300;2023-05-31T02:08:00;20.60;58.10
30594;DHT22;33199;47.590;8.300;2023-05-31T02:10:25;20.60;58.10
30594;DHT22;33199;47.590;8.300;2023-05-31T02:12:51;20.60;58.10
30594;DHT22;33199;47.590;8.300;2023-05-31T02:15:18;20.60;58.10
30594;DHT22;33199;47.590;8.300;2023-05-31T02:17:45;20.60;58.00
30594;DHT22;33199;47.590;8.300;2023-05-31T02:20:12;20.60;58.00
30594;DHT22;33199;47.590;8.300;2023-05-31T02:22:41;20.50;58.00
30594;DHT22;33199;47.590;8.300;2023-05-31T02:25:07;20.50;58.00
30594;DHT22;33199;47.590;8.300;2023-05-31T02:27:33;20.60;58.00
30594;DHT22;33199;47.590;8.300;2023-05-31T02:29:59;20.50;58.00
30594;DHT22;33199;47.590;8.300;2023-05-31T02:32:24;20.60;58.10
30594;DHT22;33199;47.590;8.300;2023-05-31T02:34:50;20.50;58.10
30594;DHT22;33199;47.590;8.300;2023-05-31T02:37:15;20.60;58.20
30594;DHT22;33199;47.590;8.300;2023-05-31T02:39:41;20.50;58.10
30594;DHT22;33199;47.590;8.300;2023-05-31T02:42:07;20.50;58.10
30594;DHT22;33199;47.590;8.300;2023-05-31T02:44:32;20.50;58.20
30594;DHT22;33199;47.590;8.300;2023-05-31T02:46:58;20.50;58.10
30594;DHT22;33199;47.590;8.300;2023-05-31T02:49:23;20.50;58.20
30594;DHT22;33199;47.590;8.300;2023-05-31T02:51:49;20.50;58.20
30594;DHT22;33199;47.590;8.300;2023-05-31T02:54:14;20.50;58.20
30594;DHT22;33199;47.590;8.300;2023-05-31T02:56:40;20.50;58.20
30594;DHT22;33199;47.590;8.300;2023-05-31T02:59:05;20.50;58.10
30594;DHT22;33199;47.590;8.300;2023-05-31T03:01:31;20.50;58.20
30594;DHT22;33199;47.590;8.300;2023-05-31T03:03:57;20.50;58.20
30594;DHT22;33199;47.590;8.300;2023-05-31T03:06:22;20.50;58.30
30594;DHT22;33199;47.590;8.300;2023-05-31T03:08:48;20.40;58.30
30594;DHT22;33199;47.590;8.300;2023-05-31T03:11:14;20.50;58.30
30594;DHT22;33199;47.590;8.300;2023-05-31T03:13:39;20.40;58.20
30594;DHT22;33199;47.590;8.300;2023-05-31T03:16:05;20.40;58.20
30594;DHT22;33199;47.590;8.300;2023-05-31T03:18:30;20.40;58.30
30594;DHT22;33199;47.590;8.300;2023-05-31T03:20:56;20.50;58.30
30594;DHT22;33199;47.590;8.300;2023-05-31T03:23:21;20.40;58.30
30594;DHT22;33199;47.590;8.300;2023-05-31T03:25:47;20.40;58.30
30594;DHT22;33199;47.590;8.300;2023-05-31T03:28:13;20.40;58.30
30594;DHT22;33199;47.590;8.300;2023-05-31T03:30:38;20.40;58.30
30594;DHT22;33199;47.590;8.300;2023-05-31T03:33:04;20.40;58.30
30594;DHT22;33199;47.590;8.300;2023-05-31T03:35:29;20.40;58.40
30594;DHT22;33199;47.590;8.300;2023-05-31T03:37:55;20.40;58.30
30594;DHT22;33199;47.590;8.300;2023-05-31T03:40:20;20.40;58.30
30594;DHT22;33199;47.590;8.300;2023-05-31T03:42:46;20.40;58.30
30594;DHT22;33199;47.590;8.300;2023-05-31T03:45:13;20.40;58.30
30594;DHT22;33199;47.590;8.300;2023-05-31T03:47:38;20.40;58.40
30594;DHT22;33199;47.590;8.300;2023-05-31T03:50:04;20.40;58.30
30594;DHT22;33199;47.590;8.300;2023-05-31T03:52:31;20.40;58.40
30594;DHT22;33199;47.590;8.300;2023-05-31T03:54:56;20.30;58.30
30594;DHT22;33199;47.590;8.300;2023-05-31T03:57:22;20.40;58.30
30594;DHT22;33199;47.590;8.300;2023-05-31T03:59:47;20.30;58.30
30594;DHT22;33199;47.590;8.300;2023-05-31T04:02:13;20.30;58.40
30594;DHT22;33199;47.590;8.300;2023-05-31T04:04:39;20.40;58.40
30594;DHT22;33199;47.590;8.300;2023-05-31T04:07:04;20.30;58.30
30594;DHT22;33199;47.590;8.300;2023-05-31T04:09:32;20.30;58.40
30594;DHT22;33199;47.590;8.300;2023-05-31T04:11:58;20.30;58.40
30594;DHT22;33199;47.590;8.300;2023-05-31T04:14:23;20.30;58.40
30594;DHT22;33199;47.590;8.300;2023-05-31T04:16:49;20.30;59.00
30594;DHT22;33199;47.590;8.300;2023-05-31T04:19:14;20.30;58.40
30594;DHT22;33199;47.590;8.300;2023-05-31T04:21:40;20.30;58.40
30594;DHT22;33199;47.590;8.300;2023-05-31T04:24:05;20.30;58.30
30594;DHT22;33199;47.590;8.300;2023-05-31T04:26:31;20.30;58.40
30594;DHT22;33199;47.590;8.300;2023-05-31T04:28:58;20.30;58.40
30594;DHT22;33199;47.590;8.300;2023-05-31T04:31:25;20.20;58.30
30594;DHT22;33199;47.590;8.300;2023-05-31T04:33:54;20.30;58.40
30594;DHT22;33199;47.590;8.300;2023-05-31T04:36:25;20.20;58.30
30594;DHT22;33199;47.590;8.300;2023-05-31T04:38:51;20.30;58.40
30594;DHT22;33199;47.590;8.300;2023-05-31T04:41:20;20.30;58.40
30594;DHT22;33199;47.590;8.300;2023-05-31T04:43:46;20.30;58.50
30594;DHT22;33199;47.590;8.300;2023-05-31T04:46:12;20.20;58.40
30594;DHT22;33199;47.590;8.300;2023-05-31T04:48:38;20.20;58.40
30594;DHT22;33199;47.590;8.300;2023-05-31T04:51:05;20.20;58.50
30594;DHT22;33199;47.590;8.300;2023-05-31T04:53:31;20.20;58.50
30594;DHT22;33199;47.590;8.300;2023-05-31T04:55:56;20.20;58.40
30594;DHT22;33199;47.590;8.300;2023-05-31T04:58:22;20.20;58.40
30594;DHT22;33199;47.590;8.300;2023-05-31T05:00:47;20.20;58.40
30594;DHT22;33199;47.590;8.300;2023-05-31T05:03:13;20.20;58.30
30594;DHT22;33199;47.590;8.300;2023-05-31T05:05:39;20.20;58.40
30594;DHT22;33199;47.590;8.300;2023-05-31T05:08:05;20.20;58.40
30594;DHT22;33199;47.590;8.300;2023-05-31T05:10:30;20.20;58.50
30594;DHT22;33199;47.590;8.300;2023-05-31T05:12:56;20.20;58.40
30594;DHT22;33199;47.590;8.300;2023-05-31T05:15:21;20.20;58.50
30594;DHT22;33199;47.590;8.300;2023-05-31T05:17:47;20.20;58.40
30594;DHT22;33199;47.590;8.300;2023-05-31T05:20:12;20.20;58.40
30594;DHT22;33199;47.590;8.300;2023-05-31T05:22:38;20.20;58.40
30594;DHT22;33199;47.590;8.300;2023-05-31T05:25:04;20.10;58.40
30594;DHT22;33199;47.590;8.300;2023-05-31T05:27:29;20.20;58.40
30594;DHT22;33199;47.590;8.300;2023-05-31T05:29:55;20.20;58.40
30594;DHT22;33199;47.590;8.300;2023-05-31T05:32:21;20.20;58.50
30594;DHT22;33199;47.590;8.300;2023-05-31T05:34:46;20.10;58.40
30594;DHT22;33199;47.590;8.300;2023-05-31T05:37:12;20.10;58.30
30594;DHT22;33199;47.590;8.300;2023-05-31T05:39:37;20.10;58.50
30594;DHT22;33199;47.590;8.300;2023-05-31T05:42:03;20.10;58.50
30594;DHT22;33199;47.590;8.300;2023-05-31T05:44:28;20.10;58.30
30594;DHT22;33199;47.590;8.300;2023-05-31T05:46:54;20.10;58.30
30594;DHT22;33199;47.590;8.300;2023-05-31T05:49:21;20.10;58.30
30594;DHT22;33199;47.590;8.300;2023-05-31T05:51:47;20.10;58.50
30594;DHT22;33199;47.590;8.300;2023-05-31T05:54:12;20.10;58.50
30594;DHT22;33199;47.590;8.300;2023-05-31T05:56:38;20.10;58.50
30594;DHT22;33199;47.590;8.300;2023-05-31T05:59:04;20.00;53.60
30594;DHT22;33199;47.590;8.300;2023-05-31T06:01:30;20.00;51.20
30594;DHT22;33199;47.590;8.300;2023-05-31T06:03:56;19.80;48.60
30594;DHT22;33199;47.590;8.300;2023-05-31T06:06:21;19.80;48.40
30594;DHT22;33199;47.590;8.300;2023-05-31T06:08:47;19.70;48.90
30594;DHT22;33199;47.590;8.300;2023-05-31T06:11:12;19.60;47.10
30594;DHT22;33199;47.590;8.300;2023-05-31T06:13:44;19.50;47.90
30594;DHT22;33199;47.590;8.300;2023-05-31T06:16:10;19.50;48.40
30594;DHT22;33199;47.590;8.300;2023-05-31T06:18:35;19.40;48.20
30594;DHT22;33199;47.590;8.300;2023-05-31T06:21:00;19.40;47.90
30594;DHT22;33199;47.590;8.300;2023-05-31T06:23:26;19.40;47.30
30594;DHT22;33199;47.590;8.300;2023-05-31T06:25:52;19.30;48.50
30594;DHT22;33199;47.590;8.300;2023-05-31T06:28:17;19.30;48.60
30594;DHT22;33199;47.590;8.300;2023-05-31T06:30:43;19.30;47.80
30594;DHT22;33199;47.590;8.300;2023-05-31T06:33:08;19.30;48.30
30594;DHT22;33199;47.590;8.300;2023-05-31T06:35:34;19.30;48.00
30594;DHT22;33199;47.590;8.300;2023-05-31T06:37:59;19.30;46.70
30594;DHT22;33199;47.590;8.300;2023-05-31T06:40:25;19.30;46.70
30594;DHT22;33199;47.590;8.300;2023-05-31T06:42:50;19.20;48.00
30594;DHT22;33199;47.590;8.300;2023-05-31T06:45:16;19.20;47.00
30594;DHT22;33199;47.590;8.300;2023-05-31T06:47:41;19.20;47.90
30594;DHT22;33199;47.590;8.300;2023-05-31T06:50:09;19.20;48.20
30594;DHT22;33199;47.590;8.300;2023-05-31T06:52:35;19.30;47.70
30594;DHT22;33199;47.590;8.300;2023-05-31T06:55:00;19.20;47.10
30594;DHT22;33199;47.590;8.300;2023-05-31T06:57:26;19.30;48.00
30594;DHT22;33199;47.590;8.300;2023-05-31T06:59:51;19.30;48.30
30594;DHT22;33199;47.590;8.300;2023-05-31T07:02:17;19.30;48.60
30594;DHT22;33199;47.590;8.300;2023-05-31T07:04:42;19.30;50.20
30594;DHT22;33199;47.590;8.300;2023-05-31T07:07:07;19.30;50.30
30594;DHT22;33199;47.590;8.300;2023-05-31T07:09:34;19.30;51.00
30594;DHT22;33199;47.590;8.300;2023-05-31T07:12:00;19.30;51.60
30594;DHT22;33199;47.590;8.300;2023-05-31T07:14:27;19.30;52.00
30594;DHT22;33199;47.590;8.300;2023-05-31T07:16:53;19.30;52.40
30594;DHT22;33199;47.590;8.300;2023-05-31T07:19:18;19.30;52.90
30594;DHT22;33199;47.590;8.300;2023-05-31T07:21:44;19.30;52.50
30594;DHT22;33199;47.590;8.300;2023-05-31T07:24:09;19.40;52.40
30594;DHT22;33199;47.590;8.300;2023-05-31T07:26:35;19.30;52.10
30594;DHT22;33199;47.590;8.300;2023-05-31T07:29:00;19.40;52.80
30594;DHT22;33199;47.590;8.300;2023-05-31T07:31:26;19.30;53.50
30594;DHT22;33199;47.590;8.300;2023-05-31T07:33:51;19.40;52.70
30594;DHT22;33199;47.590;8.300;2023-05-31T07:36:17;19.40;53.10
30594;DHT22;33199;47.590;8.300;2023-05-31T07:38:43;19.40;52.60
30594;DHT22;33199;47.590;8.300;2023-05-31T07:41:09;19.40;51.80
30594;DHT22;33199;47.590;8.300;2023-05-31T07:43:34;19.40;51.70
30594;DHT22;33199;47.590;8.300;2023-05-31T07:46:02;19.40;51.70
30594;DHT22;33199;47.590;8.300;2023-05-31T07:48:27;19.40;52.20
30594;DHT22;33199;47.590;8.300;2023-05-31T07:50:53;19.40;52.30
30594;DHT22;33199;47.590;8.300;2023-05-31T07:53:19;19.40;52.40
30594;DHT22;33199;47.590;8.300;2023-05-31T07:55:44;19.40;52.50
30594;DHT22;33199;47.590;8.300;2023-05-31T07:58:10;19.40;52.70
30594;DHT22;33199;47.590;8.300;2023-05-31T08:00:37;19.40;52.70
30594;DHT22;33199;47.590;8.300;2023-05-31T08:03:03;19.40;52.80
30594;DHT22;33199;47.590;8.300;2023-05-31T08:05:28;19.40;53.00
30594;DHT22;33199;47.590;8.300;2023-05-31T08:07:54;19.40;53.40
30594;DHT22;33199;47.590;8.300;2023-05-31T08:10:19;19.40;53.20
30594;DHT22;33199;47.590;8.300;2023-05-31T08:12:45;19.40;53.20
30594;DHT22;33199;47.590;8.300;2023-05-31T08:15:10;19.40;53.30
30594;DHT22;33199;47.590;8.300;2023-05-31T08:17:36;19.40;53.30
30594;DHT22;33199;47.590;8.300;2023-05-31T08:20:02;19.40;53.40
30594;DHT22;33199;47.590;8.300;2023-05-31T08:22:35;19.40;53.50
30594;DHT22;33199;47.590;8.300;2023-05-31T08:25:00;19.40;53.50
30594;DHT22;33199;47.590;8.300;2023-05-31T08:27:26;19.40;53.50
30594;DHT22;33199;47.590;8.300;2023-05-31T08:29:51;19.40;53.60
30594;DHT22;33199;47.590;8.300;2023-05-31T08:32:17;19.40;53.70
30594;DHT22;33199;47.590;8.300;2023-05-31T08:34:42;19.40;53.70
30594;DHT22;33199;47.590;8.300;2023-05-31T08:37:11;19.40;53.70
30594;DHT22;33199;47.590;8.300;2023-05-31T08:39:36;19.40;53.70
30594;DHT22;33199;47.590;8.300;2023-05-31T08:42:03;19.40;53.80
30594;DHT22;33199;47.590;8.300;2023-05-31T08:44:29;19.50;54.10
30594;DHT22;33199;47.590;8.300;2023-05-31T08:47:38;19.50;52.60
30594;DHT22;33199;47.590;8.300;2023-05-31T08:49:44;19.60;50.80
30594;DHT22;33199;47.590;8.300;2023-05-31T08:52:09;19.60;49.90
30594;DHT22;33199;47.590;8.300;2023-05-31T08:54:36;19.70;49.30
30594;DHT22;33199;47.590;8.300;2023-05-31T08:57:02;19.70;48.80
30594;DHT22;33199;47.590;8.300;2023-05-31T08:59:28;19.70;48.30
30594;DHT22;33199;47.590;8.300;2023-05-31T09:01:54;19.70;48.00
30594;DHT22;33199;47.590;8.300;2023-05-31T09:04:20;19.70;48.30
30594;DHT22;33199;47.590;8.300;2023-05-31T09:06:46;19.70;49.10
30594;DHT22;33199;47.590;8.300;2023-05-31T09:09:11;19.70;49.40
30594;DHT22;33199;47.590;8.300;2023-05-31T09:11:37;19.70;49.80
30594;DHT22;33199;47.590;8.300;2023-05-31T09:14:05;19.70;50.10
30594;DHT22;33199;47.590;8.300;2023-05-31T09:16:30;19.60;50.40
30594;DHT22;33199;47.590;8.300;2023-05-31T09:18:59;19.60;50.60
30594;DHT22;33199;47.590;8.300;2023-05-31T09:21:25;19.60;51.10
30594;DHT22;33199;47.590;8.300;2023-05-31T09:23:54;19.60;51.10
30594;DHT22;33199;47.590;8.300;2023-05-31T09:26:20;19.50;51.20
30594;DHT22;33199;47.590;8.300;2023-05-31T09:28:52;19.60;51.60
30594;DHT22;33199;47.590;8.300;2023-05-31T09:31:18;19.60;51.50
30594;DHT22;33199;47.590;8.300;2023-05-31T09:33:44;19.60;51.80
30594;DHT22;33199;47.590;8.300;2023-05-31T09:36:11;19.50;52.00
30594;DHT22;33199;47.590;8.300;2023-05-31T09:38:37;19.50;52.10
30594;DHT22;33199;47.590;8.300;2023-05-31T09:41:15;19.50;52.30
30594;DHT22;33199;47.590;8.300;2023-05-31T09:43:42;19.50;52.20
30594;DHT22;33199;47.590;8.300;2023-05-31T09:46:12;19.60;52.40
30594;DHT22;33199;47.590;8.300;2023-05-31T09:48:38;19.50;52.40
30594;DHT22;33199;47.590;8.300;2023-05-31T09:51:10;19.50;52.60
30594;DHT22;33199;47.590;8.300;2023-05-31T09:53:37;19.60;52.70
30594;DHT22;33199;47.590;8.300;2023-05-31T09:56:04;19.50;52.70
30594;DHT22;33199;47.590;8.300;2023-05-31T09:58:33;19.50;52.80
30594;DHT22;33199;47.590;8.300;2023-05-31T10:00:58;19.50;52.80
30594;DHT22;33199;47.590;8.300;2023-05-31T10:03:25;19.60;53.10
30594;DHT22;33199;47.590;8.300;2023-05-31T10:05:51;19.60;53.10
30594;DHT22;33199;47.590;8.300;2023-05-31T10:08:17;19.60;53.10
30594;DHT22;33199;47.590;8.300;2023-05-31T10:10:43;19.50;53.10
30594;DHT22;33199;47.590;8.300;2023-05-31T10:13:08;19.60;53.30
30594;DHT22;33199;47.590;8.300;2023-05-31T10:15:36;19.60;53.20
30594;DHT22;33199;47.590;8.300;2023-05-31T10:20:44;19.60;53.30
30594;DHT22;33199;47.590;8.300;2023-05-31T10:23:14;19.50;53.40
30594;DHT22;33199;47.590;8.300;2023-05-31T10:25:55;19.60;53.40
30594;DHT22;33199;47.590;8.300;2023-05-31T10:28:24;19.60;53.50
30594;DHT22;33199;47.590;8.300;2023-05-31T10:30:51;19.60;53.50
30594;DHT22;33199;47.590;8.300;2023-05-31T10:33:17;19.60;53.50
30594;DHT22;33199;47.590;8.300;2023-05-31T10:35:44;19.60;53.60
30594;DHT22;33199;47.590;8.300;2023-05-31T10:38:10;19.60;53.60
30594;DHT22;33199;47.590;8.300;2023-05-31T10:40:47;19.60;53.60
30594;DHT22;33199;47.590;8.300;2023-05-31T10:43:19;19.60;53.70
30594;DHT22;33199;47.590;8.300;2023-05-31T10:45:46;19.60;53.80
30594;DHT22;33199;47.590;8.300;2023-05-31T10:50:57;19.60;53.90
30594;DHT22;33199;47.590;8.300;2023-05-31T10:53:27;19.60;53.90
30594;DHT22;33199;47.590;8.300;2023-05-31T10:55:55;19.60;53.90
30594;DHT22;33199;47.590;8.300;2023-05-31T10:58:30;19.60;54.00
30594;DHT22;33199;47.590;8.300;2023-05-31T11:00:56;19.70;54.10
30594;DHT22;33199;47.590;8.300;2023-05-31T11:03:22;19.70;54.10
30594;DHT22;33199;47.590;8.300;2023-05-31T11:05:55;19.70;54.10
30594;DHT22;33199;47.590;8.300;2023-05-31T11:08:21;19.70;54.30
30594;DHT22;33199;47.590;8.300;2023-05-31T11:10:47;19.70;54.30
30594;DHT22;33199;47.590;8.300;2023-05-31T11:13:13;19.70;54.20
30594;DHT22;33199;47.590;8.300;2023-05-31T11:15:42;19.70;54.30
30594;DHT22;33199;47.590;8.300;2023-05-31T11:18:08;19.70;54.30
30594;DHT22;33199;47.590;8.300;2023-05-31T11:20:35;19.70;54.30
30594;DHT22;33199;47.590;8.300;2023-05-31T11:25:42;19.70;54.40
30594;DHT22;33199;47.590;8.300;2023-05-31T11:28:07;19.80;54.50
30594;DHT22;33199;47.590;8.300;2023-05-31T11:30:36;19.80;54.50
30594;DHT22;33199;47.590;8.300;2023-05-31T11:33:03;19.80;54.50
30594;DHT22;33199;47.590;8.300;2023-05-31T11:35:30;19.80;54.50
30594;DHT22;33199;47.590;8.300;2023-05-31T11:37:59;19.80;54.50
30594;DHT22;33199;47.590;8.300;2023-05-31T11:40:24;19.80;54.50
30594;DHT22;33199;47.590;8.300;2023-05-31T11:42:50;19.80;54.60
30594;DHT22;33199;47.590;8.300;2023-05-31T11:45:16;19.80;54.70
30594;DHT22;33199;47.590;8.300;2023-05-31T11:50:13;19.80;54.70
30594;DHT22;33199;47.590;8.300;2023-05-31T11:52:41;19.80;54.70
30594;DHT22;33199;47.590;8.300;2023-05-31T11:55:07;19.80;54.80
30594;DHT22;33199;47.590;8.300;2023-05-31T11:57:40;19.80;54.70
30594;DHT22;33199;47.590;8.300;2023-05-31T12:00:09;19.80;54.80
30594;DHT22;33199;47.590;8.300;2023-05-31T12:02:43;19.80;54.80
30594;DHT22;33199;47.590;8.300;2023-05-31T12:05:13;19.90;55.00
30594;DHT22;33199;47.590;8.300;2023-05-31T12:07:39;19.90;55.00
30594;DHT22;33199;47.590;8.300;2023-05-31T12:10:05;19.80;55.00
30594;DHT22;33199;47.590;8.300;2023-05-31T12:12:30;19.90;55.00
30594;DHT22;33199;47.590;8.300;2023-05-31T12:14:57;19.90;55.00
30594;DHT22;33199;47.590;8.300;2023-05-31T12:17:22;19.90;55.10
30594;DHT22;33199;47.590;8.300;2023-05-31T12:19:48;19.90;55.10
30594;DHT22;33199;47.590;8.300;2023-05-31T12:22:14;19.90;55.10
30594;DHT22;33199;47.590;8.300;2023-05-31T12:24:49;19.90;55.00
30594;DHT22;33199;47.590;8.300;2023-05-31T12:27:15;19.90;55.00
30594;DHT22;33199;47.590;8.300;2023-05-31T12:29:41;19.90;55.20
30594;DHT22;33199;47.590;8.300;2023-05-31T12:32:06;20.00;55.20
30594;DHT22;33199;47.590;8.300;2023-05-31T12:34:32;20.00;55.20
30594;DHT22;33199;47.590;8.300;2023-05-31T12:36:58;19.90;55.30
30594;DHT22;33199;47.590;8.300;2023-05-31T12:39:28;20.00;55.30
30594;DHT22;33199;47.590;8.300;2023-05-31T12:41:53;20.00;55.20
30594;DHT22;33199;47.590;8.300;2023-05-31T12:44:20;20.00;55.30
30594;DHT22;33199;47.590;8.300;2023-05-31T12:46:49;20.00;55.30
30594;DHT22;33199;47.590;8.300;2023-05-31T12:49:22;20.00;55.30
30594;DHT22;33199;47.590;8.300;2023-05-31T12:52:00;20.00;55.40
30594;DHT22;33199;47.590;8.300;2023-05-31T12:54:29;20.00;55.30
30594;DHT22;33199;47.590;8.300;2023-05-31T12:56:55;20.10;55.40
30594;DHT22;33199;47.590;8.300;2023-05-31T12:59:21;20.10;55.40
30594;DHT22;33199;47.590;8.300;2023-05-31T13:01:46;20.00;55.30
30594;DHT22;33199;47.590;8.300;2023-05-31T13:04:12;20.00;55.40
30594;DHT22;33199;47.590;8.300;2023-05-31T13:06:38;20.10;55.50
30594;DHT22;33199;47.590;8.300;2023-05-31T13:09:03;20.10;55.50
30594;DHT22;33199;47.590;8.300;2023-05-31T13:11:33;20.10;55.50
30594;DHT22;33199;47.590;8.300;2023-05-31T13:13:59;20.10;55.50
30594;DHT22;33199;47.590;8.300;2023-05-31T13:16:25;20.10;55.50
30594;DHT22;33199;47.590;8.300;2023-05-31T13:18:50;20.10;55.60
30594;DHT22;33199;47.590;8.300;2023-05-31T13:21:15;20.10;55.50
30594;DHT22;33199;47.590;8.300;2023-05-31T13:23:41;20.10;55.50
30594;DHT22;33199;47.590;8.300;2023-05-31T13:26:06;20.10;55.60
30594;DHT22;33199;47.590;8.300;2023-05-31T13:28:32;20.10;55.60
30594;DHT22;33199;47.590;8.300;2023-05-31T13:30:57;20.20;55.50
30594;DHT22;33199;47.590;8.300;2023-05-31T13:33:23;20.20;55.60
30594;DHT22;33199;47.590;8.300;2023-05-31T13:35:51;20.20;55.60
30594;DHT22;33199;47.590;8.300;2023-05-31T13:38:17;20.20;55.70
30594;DHT22;33199;47.590;8.300;2023-05-31T13:40:42;20.20;55.80
30594;DHT22;33199;47.590;8.300;2023-05-31T13:43:08;20.20;55.90
30594;DHT22;33199;47.590;8.300;2023-05-31T13:45:34;20.20;55.80
30594;DHT22;33199;47.590;8.300;2023-05-31T13:48:00;20.20;55.70
30594;DHT22;33199;47.590;8.300;2023-05-31T13:50:25;20.20;55.80
30594;DHT22;33199;47.590;8.300;2023-05-31T13:52:51;20.20;55.70
30594;DHT22;33199;47.590;8.300;2023-05-31T13:55:16;20.20;55.70
30594;DHT22;33199;47.590;8.300;2023-05-31T13:57:42;20.20;55.80
30594;DHT22;33199;47.590;8.300;2023-05-31T14:00:07;20.20;55.70
30594;DHT22;33199;47.590;8.300;2023-05-31T14:02:33;20.30;55.70
30594;DHT22;33199;47.590;8.300;2023-05-31T14:05:00;20.20;55.80
30594;DHT22;33199;47.590;8.300;2023-05-31T14:07:28;20.30;55.90
30594;DHT22;33199;47.590;8.300;2023-05-31T14:09:54;20.30;55.90
30594;DHT22;33199;47.590;8.300;2023-05-31T14:12:20;20.30;56.10
30594;DHT22;33199;47.590;8.300;2023-05-31T14:14:45;20.30;56.10
30594;DHT22;33199;47.590;8.300;2023-05-31T14:17:11;20.30;56.10
30594;DHT22;33199;47.590;8.300;2023-05-31T14:19:37;20.30;56.00
30594;DHT22;33199;47.590;8.300;2023-05-31T14:22:02;20.30;55.90
30594;DHT22;33199;47.590;8.300;2023-05-31T14:24:28;20.30;56.10
30594;DHT22;33199;47.590;8.300;2023-05-31T14:26:53;20.30;56.10
30594;DHT22;33199;47.590;8.300;2023-05-31T14:29:20;20.30;56.10
30594;DHT22;33199;47.590;8.300;2023-05-31T14:31:45;20.30;55.90
30594;DHT22;33199;47.590;8.300;2023-05-31T14:34:11;20.40;56.20
30594;DHT22;33199;47.590;8.300;2023-05-31T14:36:36;20.40;56.30
30594;DHT22;33199;47.590;8.300;2023-05-31T14:39:03;20.40;56.40
30594;DHT22;33199;47.590;8.300;2023-05-31T14:41:29;20.40;56.20
30594;DHT22;33199;47.590;8.300;2023-05-31T14:43:54;20.40;56.30
30594;DHT22;33199;47.590;8.300;2023-05-31T14:46:20;20.40;56.20
30594;DHT22;33199;47.590;8.300;2023-05-31T14:48:45;20.40;56.30
30594;DHT22;33199;47.590;8.300;2023-05-31T14:51:11;20.40;56.20
30594;DHT22;33199;47.590;8.300;2023-05-31T14:53:36;20.40;56.20
30594;DHT22;33199;47.590;8.300;2023-05-31T14:56:02;20.50;56.20
30594;DHT22;33199;47.590;8.300;2023-05-31T14:58:28;20.40;56.10
30594;DHT22;33199;47.590;8.300;2023-05-31T15:00:54;20.50;56.20
30594;DHT22;33199;47.590;8.300;2023-05-31T15:03:19;20.50;56.40
30594;DHT22;33199;47.590;8.300;2023-05-31T15:05:45;20.50;56.50
30594;DHT22;33199;47.590;8.300;2023-05-31T15:08:10;20.50;56.40
30594;DHT22;33199;47.590;8.300;2023-05-31T15:10:36;20.50;56.50
30594;DHT22;33199;47.590;8.300;2023-05-31T15:13:01;20.50;56.30
30594;DHT22;33199;47.590;8.300;2023-05-31T15:15:27;20.50;55.90
30594;DHT22;33199;47.590;8.300;2023-05-31T15:17:53;20.50;56.10
30594;DHT22;33199;47.590;8.300;2023-05-31T15:20:18;20.50;55.90
30594;DHT22;33199;47.590;8.300;2023-05-31T15:22:44;20.50;56.20
30594;DHT22;33199;47.590;8.300;2023-05-31T15:25:09;20.50;56.50
30594;DHT22;33199;47.590;8.300;2023-05-31T15:27:35;20.60;56.60
30594;DHT22;33199;47.590;8.300;2023-05-31T15:30:00;20.50;56.40
30594;DHT22;33199;47.590;8.300;2023-05-31T15:32:26;20.50;56.40
30594;DHT22;33199;47.590;8.300;2023-05-31T15:34:51;20.50;56.20
30594;DHT22;33199;47.590;8.300;2023-05-31T15:37:17;20.50;56.40